sensor_id;sensor_type;location;lat;lon;timestamp;P1;durP1;ratioP1;P2;durP2;ratioP2
1000;SDS011;489;47.806;12.858;2024-03-02T00:01:35;31.13;;;18.93;;
1000;SDS011;489;47.806;12.858;2024-03-02T00:03:37;34.60;;;19.17;;
1000;SDS011;489;47.806;12.858;2024-03-02T00:05:39;28.87;;;19.40;;
1000;SDS011;489;47.806;12.858;2024-03-02T00:07:40;31.47;;;20.40;;
1000;SDS011;489;47.806;12.858;2024-03-02T00:09:43;32.50;;;20.30;;
1000;SDS011;489;47.806;12.858;2024-03-02T00:11:45;28.67;;;18.70;;
1000;SDS011;489;47.806;12.858;2024-03-02T00:13:47;30.33;;;19.70;;
1000;SDS011;489;47.806;12.858;2024-03-02T00:15:51;30.00;;;19.83;;
1000;SDS011;489;47.806;12.858;2024-03-02T00:17:56;31.07;;;18.10;;
1000;SDS011;489;47.806;12.858;2024-03-02T00:19:57;28.73;;;18.10;;
1000;SDS011;489;47.806;12.858;2024-03-02T00:22:00;33.17;;;19.67;;
1000;SDS011;489;47.806;12.858;2024-03-02T00:24:04;29.17;;;20.00;;
1000;SDS011;489;47.806;12.858;2024-03-02T00:26:10;35.03;;;20.43;;
1000;SDS011;489;47.806;12.858;2024-03-02T00:28:13;33.43;;;19.93;;
1000;SDS011;489;47.806;12.858;2024-03-02T00:30:34;27.60;;;18.10;;
1000;SDS011;489;47.806;12.858;2024-03-02T00:32:52;26.73;;;18.33;;
1000;SDS011;489;47.806;12.858;2024-03-02T00:34:55;32.03;;;18.77;;
1000;SDS011;489;47.806;12.858;2024-03-02T00:36:57;33.37;;;19.03;;
1000;SDS011;489;47.806;12.858;2024-03-02T00:39:18;29.93;;;17.90;;
1000;SDS011;489;47.806;12.858;2024-03-02T00:41:21;28.87;;;19.87;;
1000;SDS011;489;47.806;12.858;2024-03-02T00:45:43;29.40;;;18.87;;
1000;SDS011;489;47.806;12.858;2024-03-02T00:47:45;31.87;;;20.37;;
1000;SDS011;489;47.806;12.858;2024-03-02T00:49:47;30.63;;;19.37;;
1000;SDS011;489;47.806;12.858;2024-03-02T00:51:51;30.73;;;19.00;;
1000;SDS011;489;47.806;12.858;2024-03-02T00:53:54;31.70;;;20.23;;
1000;SDS011;489;47.806;12.858;2024-03-02T00:55:57;35.17;;;21.07;;
1000;SDS011;489;47.806;12.858;2024-03-02T00:57:57;33.77;;;20.93;;
1000;SDS011;489;47.806;12.858;2024-03-02T00:59:59;31.63;;;20.50;;
1000;SDS011;489;47.806;12.858;2024-03-02T01:02:01;35.37;;;20.43;;
1000;SDS011;489;47.806;12.858;2024-03-02T01:04:03;36.87;;;22.60;;
1000;SDS011;489;47.806;12.858;2024-03-02T01:06:05;37.13;;;21.70;;
1000;SDS011;489;47.806;12.858;2024-03-02T01:08:08;37.53;;;21.53;;
1000;SDS011;489;47.806;12.858;2024-03-02T01:10:11;32.20;;;21.17;;
1000;SDS011;489;47.806;12.858;2024-03-02T01:12:13;37.00;;;21.40;;
1000;SDS011;489;47.806;12.858;2024-03-02T01:14:16;32.93;;;20.10;;
1000;SDS011;489;47.806;12.858;2024-03-02T01:16:18;32.20;;;20.40;;
1000;SDS011;489;47.806;12.858;2024-03-02T01:18:20;34.00;;;20.73;;
1000;SDS011;489;47.806;12.858;2024-03-02T01:20:22;33.00;;;20.50;;
1000;SDS011;489;47.806;12.858;2024-03-02T01:22:25;31.60;;;19.30;;
1000;SDS011;489;47.806;12.858;2024-03-02T01:24:29;36.23;;;20.10;;
1000;SDS011;489;47.806;12.858;2024-03-02T01:26:31;29.33;;;19.70;;
1000;SDS011;489;47.806;12.858;2024-03-02T01:28:33;33.33;;;21.37;;
1000;SDS011;489;47.806;12.858;2024-03-02T01:30:34;29.13;;;19.60;;
1000;SDS011;489;47.806;12.858;2024-03-02T01:32:37;33.50;;;19.80;;
1000;SDS011;489;47.806;12.858;2024-03-02T01:34:39;32.70;;;20.80;;
1000;SDS011;489;47.806;12.858;2024-03-02T01:36:42;30.00;;;19.20;;
1000;SDS011;489;47.806;12.858;2024-03-02T01:38:44;33.77;;;21.40;;
1000;SDS011;489;47.806;12.858;2024-03-02T01:40:47;37.70;;;21.07;;
1000;SDS011;489;47.806;12.858;2024-03-02T01:42:50;34.50;;;21.70;;
1000;SDS011;489;47.806;12.858;2024-03-02T01:44:51;32.23;;;19.53;;
1000;SDS011;489;47.806;12.858;2024-03-02T01:46:53;33.87;;;19.97;;
1000;SDS011;489;47.806;12.858;2024-03-02T01:48:55;31.57;;;20.20;;
1000;SDS011;489;47.806;12.858;2024-03-02T01:50:56;34.30;;;20.83;;
1000;SDS011;489;47.806;12.858;2024-03-02T01:52:57;31.20;;;20.27;;
1000;SDS011;489;47.806;12.858;2024-03-02T01:55:00;30.07;;;18.97;;
1000;SDS011;489;47.806;12.858;2024-03-02T01:57:02;33.13;;;20.73;;
1000;SDS011;489;47.806;12.858;2024-03-02T01:59:04;34.43;;;21.23;;
1000;SDS011;489;47.806;12.858;2024-03-02T02:01:06;37.27;;;21.13;;
1000;SDS011;489;47.806;12.858;2024-03-02T02:03:08;34.77;;;21.30;;
1000;SDS011;489;47.806;12.858;2024-03-02T02:05:09;35.47;;;22.00;;
1000;SDS011;489;47.806;12.858;2024-03-02T02:07:10;33.40;;;20.77;;
1000;SDS011;489;47.806;12.858;2024-03-02T02:09:14;34.53;;;21.67;;
1000;SDS011;489;47.806;12.858;2024-03-02T02:11:18;35.87;;;22.20;;
1000;SDS011;489;47.806;12.858;2024-03-02T02:13:22;32.20;;;19.77;;
1000;SDS011;489;47.806;12.858;2024-03-02T02:15:24;39.57;;;21.57;;
1000;SDS011;489;47.806;12.858;2024-03-02T02:17:26;37.63;;;21.23;;
1000;SDS011;489;47.806;12.858;2024-03-02T02:19:28;30.73;;;20.70;;
1000;SDS011;489;47.806;12.858;2024-03-02T02:21:31;35.37;;;21.47;;
1000;SDS011;489;47.806;12.858;2024-03-02T02:23:33;33.50;;;20.80;;
1000;SDS011;489;47.806;12.858;2024-03-02T02:25:35;35.27;;;20.67;;
1000;SDS011;489;47.806;12.858;2024-03-02T02:27:37;35.03;;;20.43;;
1000;SDS011;489;47.806;12.858;2024-03-02T02:29:38;32.20;;;19.90;;
1000;SDS011;489;47.806;12.858;2024-03-02T02:31:40;31.20;;;19.03;;
1000;SDS011;489;47.806;12.858;2024-03-02T02:34:01;30.70;;;19.23;;
1000;SDS011;489;47.806;12.858;2024-03-02T02:36:04;34.40;;;20.23;;
1000;SDS011;489;47.806;12.858;2024-03-02T02:38:07;33.37;;;19.63;;
1000;SDS011;489;47.806;12.858;2024-03-02T02:40:09;35.20;;;21.70;;
1000;SDS011;489;47.806;12.858;2024-03-02T02:42:12;34.83;;;20.30;;
1000;SDS011;489;47.806;12.858;2024-03-02T02:44:14;35.47;;;21.03;;
1000;SDS011;489;47.806;12.858;2024-03-02T02:46:16;33.60;;;20.87;;
1000;SDS011;489;47.806;12.858;2024-03-02T02:48:18;38.13;;;21.57;;
1000;SDS011;489;47.806;12.858;2024-03-02T02:50:20;37.77;;;20.97;;
1000;SDS011;489;47.806;12.858;2024-03-02T02:52:21;35.90;;;22.13;;
1000;SDS011;489;47.806;12.858;2024-03-02T02:54:24;33.80;;;21.07;;
1000;SDS011;489;47.806;12.858;2024-03-02T02:56:26;42.03;;;21.17;;
1000;SDS011;489;47.806;12.858;2024-03-02T02:58:28;36.90;;;19.70;;
1000;SDS011;489;47.806;12.858;2024-03-02T03:00:30;32.73;;;20.40;;
1000;SDS011;489;47.806;12.858;2024-03-02T03:02:32;44.07;;;22.90;;
1000;SDS011;489;47.806;12.858;2024-03-02T03:04:33;40.70;;;22.10;;
1000;SDS011;489;47.806;12.858;2024-03-02T03:06:35;32.53;;;20.47;;
1000;SDS011;489;47.806;12.858;2024-03-02T03:08:37;29.27;;;19.63;;
1000;SDS011;489;47.806;12.858;2024-03-02T03:10:39;29.10;;;19.67;;
1000;SDS011;489;47.806;12.858;2024-03-02T03:12:42;29.70;;;18.90;;
1000;SDS011;489;47.806;12.858;2024-03-02T03:14:44;36.90;;;20.43;;
1000;SDS011;489;47.806;12.858;2024-03-02T03:16:46;37.90;;;19.83;;
1000;SDS011;489;47.806;12.858;2024-03-02T03:18:48;64.13;;;21.90;;
1000;SDS011;489;47.806;12.858;2024-03-02T03:20:51;30.73;;;18.57;;
1000;SDS011;489;47.806;12.858;2024-03-02T03:22:52;30.70;;;19.43;;
1000;SDS011;489;47.806;12.858;2024-03-02T03:24:54;30.97;;;18.30;;
1000;SDS011;489;47.806;12.858;2024-03-02T03:26:57;30.73;;;19.20;;
1000;SDS011;489;47.806;12.858;2024-03-02T03:28:59;27.77;;;17.20;;
1000;SDS011;489;47.806;12.858;2024-03-02T03:31:02;34.77;;;17.93;;
1000;SDS011;489;47.806;12.858;2024-03-02T03:33:05;24.17;;;16.10;;
1000;SDS011;489;47.806;12.858;2024-03-02T03:35:26;29.17;;;16.67;;
1000;SDS011;489;47.806;12.858;2024-03-02T03:37:28;26.00;;;16.20;;
1000;SDS011;489;47.806;12.858;2024-03-02T03:39:33;22.40;;;15.43;;
1000;SDS011;489;47.806;12.858;2024-03-02T03:41:35;22.97;;;15.10;;
1000;SDS011;489;47.806;12.858;2024-03-02T03:43:39;22.20;;;14.90;;
1000;SDS011;489;47.806;12.858;2024-03-02T03:45:41;25.53;;;15.50;;
1000;SDS011;489;47.806;12.858;2024-03-02T03:47:43;23.10;;;15.83;;
1000;SDS011;489;47.806;12.858;2024-03-02T03:49:44;20.87;;;13.77;;
1000;SDS011;489;47.806;12.858;2024-03-02T03:51:46;23.10;;;14.57;;
1000;SDS011;489;47.806;12.858;2024-03-02T03:53:48;23.47;;;15.57;;
1000;SDS011;489;47.806;12.858;2024-03-02T03:55:50;25.10;;;15.80;;
1000;SDS011;489;47.806;12.858;2024-03-02T03:57:52;28.30;;;15.40;;
1000;SDS011;489;47.806;12.858;2024-03-02T03:59:56;22.97;;;14.47;;
1000;SDS011;489;47.806;12.858;2024-03-02T04:01:58;25.13;;;14.53;;
1000;SDS011;489;47.806;12.858;2024-03-02T04:03:59;24.13;;;14.73;;
1000;SDS011;489;47.806;12.858;2024-03-02T04:06:02;25.37;;;15.67;;
1000;SDS011;489;47.806;12.858;2024-03-02T04:08:05;23.60;;;14.67;;
1000;SDS011;489;47.806;12.858;2024-03-02T04:10:07;21.20;;;14.00;;
1000;SDS011;489;47.806;12.858;2024-03-02T04:12:10;21.90;;;14.73;;
1000;SDS011;489;47.806;12.858;2024-03-02T04:14:13;26.53;;;15.10;;
1000;SDS011;489;47.806;12.858;2024-03-02T04:16:16;25.43;;;15.50;;
1000;SDS011;489;47.806;12.858;2024-03-02T04:18:17;20.73;;;12.70;;
1000;SDS011;489;47.806;12.858;2024-03-02T04:20:19;22.73;;;14.70;;
1000;SDS011;489;47.806;12.858;2024-03-02T04:22:22;26.23;;;14.70;;
1000;SDS011;489;47.806;12.858;2024-03-02T04:24:23;20.77;;;13.90;;
1000;SDS011;489;47.806;12.858;2024-03-02T04:26:25;20.50;;;13.23;;
1000;SDS011;489;47.806;12.858;2024-03-02T04:28:27;20.00;;;12.77;;
1000;SDS011;489;47.806;12.858;2024-03-02T04:30:28;21.40;;;12.90;;
1000;SDS011;489;47.806;12.858;2024-03-02T04:32:32;21.00;;;13.20;;
1000;SDS011;489;47.806;12.858;2024-03-02T04:34:34;22.37;;;13.60;;
1000;SDS011;489;47.806;12.858;2024-03-02T04:36:34;22.30;;;14.40;;
1000;SDS011;489;47.806;12.858;2024-03-02T04:38:37;21.97;;;14.30;;
1000;SDS011;489;47.806;12.858;2024-03-02T04:40:39;23.57;;;14.33;;
1000;SDS011;489;47.806;12.858;2024-03-02T04:42:40;29.73;;;16.33;;
1000;SDS011;489;47.806;12.858;2024-03-02T04:44:43;26.57;;;15.77;;
1000;SDS011;489;47.806;12.858;2024-03-02T04:46:45;26.03;;;14.93;;
1000;SDS011;489;47.806;12.858;2024-03-02T04:48:48;26.90;;;15.40;;
1000;SDS011;489;47.806;12.858;2024-03-02T04:50:55;20.93;;;13.70;;
1000;SDS011;489;47.806;12.858;2024-03-02T04:52:57;20.83;;;12.73;;
1000;SDS011;489;47.806;12.858;2024-03-02T04:54:59;21.37;;;12.83;;
1000;SDS011;489;47.806;12.858;2024-03-02T04:57:29;25.67;;;12.70;;
1000;SDS011;489;47.806;12.858;2024-03-02T04:59:31;21.80;;;14.70;;
1000;SDS011;489;47.806;12.858;2024-03-02T05:01:33;24.73;;;15.33;;
1000;SDS011;489;47.806;12.858;2024-03-02T05:03:34;24.37;;;14.80;;
1000;SDS011;489;47.806;12.858;2024-03-02T05:05:37;21.53;;;13.20;;
1000;SDS011;489;47.806;12.858;2024-03-02T05:07:39;20.90;;;13.53;;
1000;SDS011;489;47.806;12.858;2024-03-02T05:09:43;18.27;;;11.33;;
1000;SDS011;489;47.806;12.858;2024-03-02T05:11:44;19.63;;;12.30;;
1000;SDS011;489;47.806;12.858;2024-03-02T05:14:23;19.47;;;12.93;;
1000;SDS011;489;47.806;12.858;2024-03-02T05:16:24;19.80;;;11.30;;
1000;SDS011;489;47.806;12.858;2024-03-02T05:18:26;18.90;;;12.03;;
1000;SDS011;489;47.806;12.858;2024-03-02T05:20:28;16.83;;;10.87;;
1000;SDS011;489;47.806;12.858;2024-03-02T05:22:31;18.07;;;11.60;;
1000;SDS011;489;47.806;12.858;2024-03-02T05:24:34;17.77;;;12.03;;
1000;SDS011;489;47.806;12.858;2024-03-02T05:26:36;17.53;;;9.73;;
1000;SDS011;489;47.806;12.858;2024-03-02T05:28:38;19.47;;;12.07;;
1000;SDS011;489;47.806;12.858;2024-03-02T05:30:42;22.33;;;11.83;;
1000;SDS011;489;47.806;12.858;2024-03-02T05:32:44;20.63;;;11.17;;
1000;SDS011;489;47.806;12.858;2024-03-02T05:34:46;19.67;;;12.53;;
1000;SDS011;489;47.806;12.858;2024-03-02T05:36:47;21.40;;;12.70;;
1000;SDS011;489;47.806;12.858;2024-03-02T05:38:50;19.20;;;11.97;;
1000;SDS011;489;47.806;12.858;2024-03-02T05:40:52;19.57;;;12.63;;
1000;SDS011;489;47.806;12.858;2024-03-02T05:42:54;23.80;;;13.70;;
1000;SDS011;489;47.806;12.858;2024-03-02T05:44:56;20.67;;;12.93;;
1000;SDS011;489;47.806;12.858;2024-03-02T05:46:58;23.20;;;12.90;;
1000;SDS011;489;47.806;12.858;2024-03-02T05:49:02;23.67;;;13.40;;
1000;SDS011;489;47.806;12.858;2024-03-02T05:51:04;23.30;;;14.03;;
1000;SDS011;489;47.806;12.858;2024-03-02T05:53:06;21.50;;;12.87;;
1000;SDS011;489;47.806;12.858;2024-03-02T05:55:09;25.03;;;14.87;;
1000;SDS011;489;47.806;12.858;2024-03-02T05:57:11;21.43;;;13.00;;
1000;SDS011;489;47.806;12.858;2024-03-02T05:59:32;20.70;;;12.50;;
1000;SDS011;489;47.806;12.858;2024-03-02T06:01:34;17.70;;;11.90;;
1000;SDS011;489;47.806;12.858;2024-03-02T06:03:36;18.23;;;12.07;;
1000;SDS011;489;47.806;12.858;2024-03-02T06:05:38;22.13;;;13.90;;
1000;SDS011;489;47.806;12.858;2024-03-02T06:07:40;22.30;;;12.47;;
1000;SDS011;489;47.806;12.858;2024-03-02T06:09:41;20.73;;;12.57;;
1000;SDS011;489;47.806;12.858;2024-03-02T06:11:46;19.27;;;12.43;;
1000;SDS011;489;47.806;12.858;2024-03-02T06:13:48;19.90;;;12.43;;
1000;SDS011;489;47.806;12.858;2024-03-02T06:15:49;16.67;;;10.63;;
1000;SDS011;489;47.806;12.858;2024-03-02T06:17:51;18.00;;;11.60;;
1000;SDS011;489;47.806;12.858;2024-03-02T06:19:52;15.17;;;11.07;;
1000;SDS011;489;47.806;12.858;2024-03-02T06:21:55;15.20;;;9.63;;
1000;SDS011;489;47.806;12.858;2024-03-02T06:23:57;14.80;;;9.43;;
1000;SDS011;489;47.806;12.858;2024-03-02T06:25:59;14.90;;;9.77;;
1000;SDS011;489;47.806;12.858;2024-03-02T06:28:01;15.50;;;9.73;;
1000;SDS011;489;47.806;12.858;2024-03-02T06:30:04;16.80;;;9.70;;
1000;SDS011;489;47.806;12.858;2024-03-02T06:32:07;15.37;;;10.10;;
1000;SDS011;489;47.806;12.858;2024-03-02T06:34:09;12.50;;;8.73;;
1000;SDS011;489;47.806;12.858;2024-03-02T06:36:11;12.73;;;9.00;;
1000;SDS011;489;47.806;12.858;2024-03-02T06:38:13;13.13;;;8.60;;
1000;SDS011;489;47.806;12.858;2024-03-02T06:40:15;16.57;;;9.13;;
1000;SDS011;489;47.806;12.858;2024-03-02T06:42:17;16.67;;;10.10;;
1000;SDS011;489;47.806;12.858;2024-03-02T06:44:20;16.90;;;9.80;;
1000;SDS011;489;47.806;12.858;2024-03-02T06:46:23;14.53;;;8.90;;
1000;SDS011;489;47.806;12.858;2024-03-02T06:48:24;16.43;;;9.83;;
1000;SDS011;489;47.806;12.858;2024-03-02T06:50:26;14.10;;;9.57;;
1000;SDS011;489;47.806;12.858;2024-03-02T06:52:27;18.10;;;10.20;;
1000;SDS011;489;47.806;12.858;2024-03-02T06:54:29;14.43;;;9.70;;
1000;SDS011;489;47.806;12.858;2024-03-02T06:56:31;15.80;;;9.93;;
1000;SDS011;489;47.806;12.858;2024-03-02T06:58:34;13.63;;;9.83;;
1000;SDS011;489;47.806;12.858;2024-03-02T07:00:37;17.00;;;11.03;;
1000;SDS011;489;47.806;12.858;2024-03-02T07:02:40;21.80;;;12.80;;
1000;SDS011;489;47.806;12.858;2024-03-02T07:04:41;27.97;;;13.60;;
1000;SDS011;489;47.806;12.858;2024-03-02T07:06:43;26.27;;;14.07;;
1000;SDS011;489;47.806;12.858;2024-03-02T07:08:45;25.57;;;13.93;;
1000;SDS011;489;47.806;12.858;2024-03-02T07:10:47;29.47;;;16.30;;
1000;SDS011;489;47.806;12.858;2024-03-02T07:12:49;28.87;;;15.47;;
1000;SDS011;489;47.806;12.858;2024-03-02T07:14:51;26.90;;;15.60;;
1000;SDS011;489;47.806;12.858;2024-03-02T07:17:12;24.50;;;14.90;;
1000;SDS011;489;47.806;12.858;2024-03-02T07:19:14;25.70;;;13.77;;
1000;SDS011;489;47.806;12.858;2024-03-02T07:21:16;27.00;;;16.37;;
1000;SDS011;489;47.806;12.858;2024-03-02T07:23:17;33.57;;;16.37;;
1000;SDS011;489;47.806;12.858;2024-03-02T07:25:20;25.57;;;14.63;;
1000;SDS011;489;47.806;12.858;2024-03-02T07:27:23;27.73;;;15.00;;
1000;SDS011;489;47.806;12.858;2024-03-02T07:29:23;28.17;;;15.27;;
1000;SDS011;489;47.806;12.858;2024-03-02T07:31:25;26.50;;;14.20;;
1000;SDS011;489;47.806;12.858;2024-03-02T07:33:28;26.23;;;16.40;;
1000;SDS011;489;47.806;12.858;2024-03-02T07:35:29;27.03;;;14.40;;
1000;SDS011;489;47.806;12.858;2024-03-02T07:37:32;24.27;;;14.43;;
1000;SDS011;489;47.806;12.858;2024-03-02T07:39:33;27.37;;;16.00;;
1000;SDS011;489;47.806;12.858;2024-03-02T07:41:35;24.67;;;17.40;;
1000;SDS011;489;47.806;12.858;2024-03-02T07:43:37;26.43;;;16.60;;
1000;SDS011;489;47.806;12.858;2024-03-02T07:45:40;27.90;;;17.57;;
1000;SDS011;489;47.806;12.858;2024-03-02T07:47:42;25.77;;;15.70;;
1000;SDS011;489;47.806;12.858;2024-03-02T07:49:46;25.77;;;15.87;;
1000;SDS011;489;47.806;12.858;2024-03-02T07:51:48;25.20;;;15.47;;
1000;SDS011;489;47.806;12.858;2024-03-02T07:53:50;31.87;;;15.63;;
1000;SDS011;489;47.806;12.858;2024-03-02T07:55:51;24.80;;;14.40;;
1000;SDS011;489;47.806;12.858;2024-03-02T07:57:53;25.77;;;14.80;;
1000;SDS011;489;47.806;12.858;2024-03-02T07:59:54;38.17;;;16.07;;
1000;SDS011;489;47.806;12.858;2024-03-02T08:01:56;27.17;;;15.63;;
1000;SDS011;489;47.806;12.858;2024-03-02T08:03:59;28.33;;;16.37;;
1000;SDS011;489;47.806;12.858;2024-03-02T08:06:03;23.63;;;14.17;;
1000;SDS011;489;47.806;12.858;2024-03-02T08:08:05;24.23;;;14.80;;
1000;SDS011;489;47.806;12.858;2024-03-02T08:10:08;23.40;;;15.20;;
1000;SDS011;489;47.806;12.858;2024-03-02T08:12:10;27.83;;;16.43;;
1000;SDS011;489;47.806;12.858;2024-03-02T08:14:11;32.33;;;15.50;;
1000;SDS011;489;47.806;12.858;2024-03-02T08:16:13;29.10;;;16.43;;
1000;SDS011;489;47.806;12.858;2024-03-02T08:18:16;23.90;;;14.90;;
1000;SDS011;489;47.806;12.858;2024-03-02T08:20:17;22.83;;;14.63;;
1000;SDS011;489;47.806;12.858;2024-03-02T08:22:22;22.53;;;15.57;;
1000;SDS011;489;47.806;12.858;2024-03-02T08:24:25;26.70;;;15.23;;
1000;SDS011;489;47.806;12.858;2024-03-02T08:26:27;27.57;;;15.80;;
1000;SDS011;489;47.806;12.858;2024-03-02T08:28:31;26.90;;;15.90;;
1000;SDS011;489;47.806;12.858;2024-03-02T08:30:33;28.73;;;16.60;;
1000;SDS011;489;47.806;12.858;2024-03-02T08:32:35;26.40;;;16.60;;
1000;SDS011;489;47.806;12.858;2024-03-02T08:34:36;26.67;;;16.70;;
1000;SDS011;489;47.806;12.858;2024-03-02T08:36:38;28.40;;;16.20;;
1000;SDS011;489;47.806;12.858;2024-03-02T08:38:42;27.27;;;15.60;;
1000;SDS011;489;47.806;12.858;2024-03-02T08:40:45;23.67;;;16.50;;
1000;SDS011;489;47.806;12.858;2024-03-02T08:42:47;28.07;;;15.33;;
1000;SDS011;489;47.806;12.858;2024-03-02T08:44:49;29.80;;;16.70;;
1000;SDS011;489;47.806;12.858;2024-03-02T08:46:51;26.43;;;16.40;;
1000;SDS011;489;47.806;12.858;2024-03-02T08:48:53;28.47;;;15.57;;
1000;SDS011;489;47.806;12.858;2024-03-02T08:50:54;25.30;;;14.60;;
1000;SDS011;489;47.806;12.858;2024-03-02T08:52:56;26.57;;;15.60;;
1000;SDS011;489;47.806;12.858;2024-03-02T08:54:59;26.17;;;14.70;;
1000;SDS011;489;47.806;12.858;2024-03-02T08:57:01;25.07;;;15.20;;
1000;SDS011;489;47.806;12.858;2024-03-02T08:59:02;24.23;;;14.43;;
1000;SDS011;489;47.806;12.858;2024-03-02T09:01:03;23.50;;;13.97;;
1000;SDS011;489;47.806;12.858;2024-03-02T09:03:07;25.93;;;15.07;;
1000;SDS011;489;47.806;12.858;2024-03-02T09:05:09;23.97;;;14.77;;
1000;SDS011;489;47.806;12.858;2024-03-02T09:07:11;43.63;;;28.83;;
1000;SDS011;489;47.806;12.858;2024-03-02T09:09:12;26.47;;;16.53;;
1000;SDS011;489;47.806;12.858;2024-03-02T09:11:16;25.80;;;15.50;;
1000;SDS011;489;47.806;12.858;2024-03-02T09:13:17;26.27;;;14.70;;
1000;SDS011;489;47.806;12.858;2024-03-02T09:15:20;27.60;;;15.70;;
1000;SDS011;489;47.806;12.858;2024-03-02T09:17:20;26.20;;;14.20;;
1000;SDS011;489;47.806;12.858;2024-03-02T09:19:22;28.90;;;15.83;;
1000;SDS011;489;47.806;12.858;2024-03-02T09:21:23;24.80;;;15.67;;
1000;SDS011;489;47.806;12.858;2024-03-02T09:23:25;23.67;;;15.60;;
1000;SDS011;489;47.806;12.858;2024-03-02T09:25:29;22.87;;;14.00;;
1000;SDS011;489;47.806;12.858;2024-03-02T09:27:32;24.70;;;14.93;;
1000;SDS011;489;47.806;12.858;2024-03-02T09:29:33;22.20;;;14.00;;
1000;SDS011;489;47.806;12.858;2024-03-02T09:31:39;26.83;;;14.73;;
1000;SDS011;489;47.806;12.858;2024-03-02T09:33:41;23.47;;;13.97;;
1000;SDS011;489;47.806;12.858;2024-03-02T09:35:43;23.50;;;15.13;;
1000;SDS011;489;47.806;12.858;2024-03-02T09:37:44;22.93;;;13.83;;
1000;SDS011;489;47.806;12.858;2024-03-02T09:39:46;23.30;;;14.17;;
1000;SDS011;489;47.806;12.858;2024-03-02T09:41:48;20.63;;;13.10;;
1000;SDS011;489;47.806;12.858;2024-03-02T09:43:51;21.80;;;14.00;;
1000;SDS011;489;47.806;12.858;2024-03-02T09:45:54;24.70;;;15.57;;
1000;SDS011;489;47.806;12.858;2024-03-02T09:47:56;20.50;;;12.93;;
1000;SDS011;489;47.806;12.858;2024-03-02T09:49:58;21.60;;;14.10;;
1000;SDS011;489;47.806;12.858;2024-03-02T09:51:59;21.50;;;13.77;;
1000;SDS011;489;47.806;12.858;2024-03-02T09:54:01;21.73;;;13.47;;
1000;SDS011;489;47.806;12.858;2024-03-02T09:56:03;18.77;;;13.13;;
1000;SDS011;489;47.806;12.858;2024-03-02T09:58:05;20.52;;;15.07;;
1000;SDS011;489;47.806;12.858;2024-03-02T10:00:09;17.03;;;12.97;;
1000;SDS011;489;47.806;12.858;2024-03-02T10:02:14;19.00;;;12.43;;
1000;SDS011;489;47.806;12.858;2024-03-02T10:04:16;22.57;;;13.97;;
1000;SDS011;489;47.806;12.858;2024-03-02T10:06:19;19.17;;;13.27;;
1000;SDS011;489;47.806;12.858;2024-03-02T10:08:21;19.30;;;12.83;;
1000;SDS011;489;47.806;12.858;2024-03-02T10:10:23;16.60;;;11.30;;
1000;SDS011;489;47.806;12.858;2024-03-02T10:12:25;17.17;;;11.87;;
1000;SDS011;489;47.806;12.858;2024-03-02T10:14:28;20.63;;;12.17;;
1000;SDS011;489;47.806;12.858;2024-03-02T10:16:30;19.37;;;11.50;;
1000;SDS011;489;47.806;12.858;2024-03-02T10:18:32;14.37;;;10.57;;
1000;SDS011;489;47.806;12.858;2024-03-02T10:20:34;15.10;;;10.30;;
1000;SDS011;489;47.806;12.858;2024-03-02T10:22:36;17.87;;;10.90;;
1000;SDS011;489;47.806;12.858;2024-03-02T10:24:39;13.57;;;10.50;;
1000;SDS011;489;47.806;12.858;2024-03-02T10:26:41;14.50;;;10.47;;
1000;SDS011;489;47.806;12.858;2024-03-02T10:28:45;13.73;;;9.97;;
1000;SDS011;489;47.806;12.858;2024-03-02T10:30:47;12.90;;;10.20;;
1000;SDS011;489;47.806;12.858;2024-03-02T10:32:50;15.60;;;10.97;;
1000;SDS011;489;47.806;12.858;2024-03-02T10:34:51;16.70;;;11.20;;
1000;SDS011;489;47.806;12.858;2024-03-02T10:36:53;13.40;;;9.83;;
1000;SDS011;489;47.806;12.858;2024-03-02T10:38:56;13.90;;;10.10;;
1000;SDS011;489;47.806;12.858;2024-03-02T10:40:59;13.80;;;10.07;;
1000;SDS011;489;47.806;12.858;2024-03-02T10:43:02;14.77;;;10.53;;
1000;SDS011;489;47.806;12.858;2024-03-02T10:45:06;10.83;;;9.33;;
1000;SDS011;489;47.806;12.858;2024-03-02T10:47:09;13.97;;;10.00;;
1000;SDS011;489;47.806;12.858;2024-03-02T10:49:15;13.43;;;9.50;;
1000;SDS011;489;47.806;12.858;2024-03-02T10:51:16;12.70;;;10.17;;
1000;SDS011;489;47.806;12.858;2024-03-02T10:53:18;12.40;;;9.90;;
1000;SDS011;489;47.806;12.858;2024-03-02T10:55:20;13.93;;;9.90;;
1000;SDS011;489;47.806;12.858;2024-03-02T10:57:22;11.83;;;9.10;;
1000;SDS011;489;47.806;12.858;2024-03-02T10:59:27;11.60;;;8.87;;
1000;SDS011;489;47.806;12.858;2024-03-02T11:01:31;14.67;;;8.90;;
1000;SDS011;489;47.806;12.858;2024-03-02T11:03:35;13.23;;;9.93;;
1000;SDS011;489;47.806;12.858;2024-03-02T11:05:41;14.47;;;10.77;;
1000;SDS011;489;47.806;12.858;2024-03-02T11:07:45;14.50;;;11.10;;
1000;SDS011;489;47.806;12.858;2024-03-02T11:09:49;11.90;;;9.37;;
1000;SDS011;489;47.806;12.858;2024-03-02T11:11:56;14.40;;;10.20;;
1000;SDS011;489;47.806;12.858;2024-03-02T11:14:04;12.77;;;9.70;;
1000;SDS011;489;47.806;12.858;2024-03-02T11:16:09;15.87;;;10.00;;
1000;SDS011;489;47.806;12.858;2024-03-02T11:18:15;12.37;;;9.43;;
1000;SDS011;489;47.806;12.858;2024-03-02T11:20:17;11.87;;;9.30;;
1000;SDS011;489;47.806;12.858;2024-03-02T11:22:22;9.23;;;7.80;;
1000;SDS011;489;47.806;12.858;2024-03-02T11:24:28;9.40;;;8.00;;
1000;SDS011;489;47.806;12.858;2024-03-02T11:26:33;9.53;;;7.73;;
1000;SDS011;489;47.806;12.858;2024-03-02T11:28:40;9.53;;;7.97;;
1000;SDS011;489;47.806;12.858;2024-03-02T11:30:48;10.10;;;7.67;;
1000;SDS011;489;47.806;12.858;2024-03-02T11:32:54;12.13;;;8.70;;
1000;SDS011;489;47.806;12.858;2024-03-02T11:34:56;9.43;;;7.87;;
1000;SDS011;489;47.806;12.858;2024-03-02T11:36:58;9.57;;;8.40;;
1000;SDS011;489;47.806;12.858;2024-03-02T11:39:01;10.93;;;8.83;;
1000;SDS011;489;47.806;12.858;2024-03-02T11:41:05;8.93;;;7.57;;
1000;SDS011;489;47.806;12.858;2024-03-02T11:43:09;9.73;;;7.70;;
1000;SDS011;489;47.806;12.858;2024-03-02T11:45:09;8.90;;;7.43;;
1000;SDS011;489;47.806;12.858;2024-03-02T11:47:12;11.70;;;7.87;;
1000;SDS011;489;47.806;12.858;2024-03-02T11:49:20;10.67;;;8.17;;
1000;SDS011;489;47.806;12.858;2024-03-02T11:51:37;7.53;;;6.83;;
1000;SDS011;489;47.806;12.858;2024-03-02T11:53:40;7.03;;;6.30;;
1000;SDS011;489;47.806;12.858;2024-03-02T11:55:45;8.17;;;6.77;;
1000;SDS011;489;47.806;12.858;2024-03-02T11:57:47;7.53;;;6.70;;
1000;SDS011;489;47.806;12.858;2024-03-02T11:59:50;9.60;;;8.03;;
1000;SDS011;489;47.806;12.858;2024-03-02T12:01:52;8.00;;;6.70;;
1000;SDS011;489;47.806;12.858;2024-03-02T12:03:53;8.47;;;6.67;;
1000;SDS011;489;47.806;12.858;2024-03-02T12:05:55;7.37;;;6.53;;
1000;SDS011;489;47.806;12.858;2024-03-02T12:07:57;7.30;;;6.60;;
1000;SDS011;489;47.806;12.858;2024-03-02T12:10:00;7.37;;;6.50;;
1000;SDS011;489;47.806;12.858;2024-03-02T12:12:05;7.23;;;6.53;;
1000;SDS011;489;47.806;12.858;2024-03-02T12:14:10;7.93;;;6.93;;
1000;SDS011;489;47.806;12.858;2024-03-02T12:16:16;8.13;;;7.33;;
1000;SDS011;489;47.806;12.858;2024-03-02T12:18:24;8.53;;;7.00;;
1000;SDS011;489;47.806;12.858;2024-03-02T12:20:27;9.10;;;7.67;;
1000;SDS011;489;47.806;12.858;2024-03-02T12:22:30;8.87;;;8.00;;
1000;SDS011;489;47.806;12.858;2024-03-02T12:24:32;8.77;;;7.97;;
1000;SDS011;489;47.806;12.858;2024-03-02T12:26:34;8.40;;;7.50;;